sensor_id;sensor_type;location;lat;lon;timestamp;P1;durP1;ratioP1;P2;durP2;ratioP2
6394;SDS011;3230;42.588;23.358;2023-03-31T00:01:27;10.30;;;5.10;;
6394;SDS011;3230;42.588;23.358;2023-03-31T00:03:54;5.60;;;3.60;;
6394;SDS011;3230;42.588;23.358;2023-03-31T00:06:26;11.33;;;4.67;;
6394;SDS011;3230;42.588;23.358;2023-03-31T00:08:54;31.47;;;12.20;;
6394;SDS011;3230;42.588;23.358;2023-03-31T00:11:22;28.83;;;11.70;;
6394;SDS011;3230;42.588;23.358;2023-03-31T00:13:47;29.93;;;11.50;;
6394;SDS011;3230;42.588;23.358;2023-03-31T00:16:13;19.63;;;8.40;;
6394;SDS011;3230;42.588;23.358;2023-03-31T00:18:39;12.80;;;6.20;;
6394;SDS011;3230;42.588;23.358;2023-03-31T00:21:14;6.87;;;3.37;;
6394;SDS011;3230;42.588;23.358;2023-03-31T00:23:54;3.07;;;2.70;;
6394;SDS011;3230;42.588;23.358;2023-03-31T00:26:21;7.93;;;5.50;;
6394;SDS011;3230;42.588;23.358;2023-03-31T00:28:48;7.10;;;2.80;;
6394;SDS011;3230;42.588;23.358;2023-03-31T00:31:13;6.47;;;3.87;;
6394;SDS011;3230;42.588;23.358;2023-03-31T00:33:39;4.10;;;2.60;;
6394;SDS011;3230;42.588;23.358;2023-03-31T00:36:05;4.20;;;2.43;;
6394;SDS011;3230;42.588;23.358;2023-03-31T00:38:31;4.87;;;2.50;;
6394;SDS011;3230;42.588;23.358;2023-03-31T00:40:58;4.60;;;2.40;;
6394;SDS011;3230;42.588;23.358;2023-03-31T00:46:10;4.03;;;3.30;;
6394;SDS011;3230;42.588;23.358;2023-03-31T00:48:40;5.77;;;2.97;;
6394;SDS011;3230;42.588;23.358;2023-03-31T00:51:11;8.93;;;3.93;;
6394;SDS011;3230;42.588;23.358;2023-03-31T00:53:38;3.73;;;2.80;;
6394;SDS011;3230;42.588;23.358;2023-03-31T00:56:06;5.43;;;3.30;;
6394;SDS011;3230;42.588;23.358;2023-03-31T00:58:36;8.37;;;3.60;;
6394;SDS011;3230;42.588;23.358;2023-03-31T01:01:07;6.87;;;2.50;;
6394;SDS011;3230;42.588;23.358;2023-03-31T01:03:38;4.73;;;2.20;;
6394;SDS011;3230;42.588;23.358;2023-03-31T01:06:06;3.10;;;2.40;;
6394;SDS011;3230;42.588;23.358;2023-03-31T01:08:34;2.73;;;2.20;;
6394;SDS011;3230;42.588;23.358;2023-03-31T01:11:04;12.00;;;4.27;;
6394;SDS011;3230;42.588;23.358;2023-03-31T01:13:31;5.93;;;3.50;;
6394;SDS011;3230;42.588;23.358;2023-03-31T01:16:00;4.80;;;3.20;;
6394;SDS011;3230;42.588;23.358;2023-03-31T01:18:26;3.03;;;2.07;;
6394;SDS011;3230;42.588;23.358;2023-03-31T01:51:24;2.87;;;1.50;;
6394;SDS011;3230;42.588;23.358;2023-03-31T01:54:33;3.80;;;1.53;;
6394;SDS011;3230;42.588;23.358;2023-03-31T01:57:12;2.40;;;1.70;;
6394;SDS011;3230;42.588;23.358;2023-03-31T02:02:32;2.87;;;2.00;;
6394;SDS011;3230;42.588;23.358;2023-03-31T02:05:05;2.83;;;1.70;;
6394;SDS011;3230;42.588;23.358;2023-03-31T02:08:07;2.90;;;1.30;;
6394;SDS011;3230;42.588;23.358;2023-03-31T02:10:34;2.40;;;1.50;;
6394;SDS011;3230;42.588;23.358;2023-03-31T02:13:01;2.40;;;1.60;;
6394;SDS011;3230;42.588;23.358;2023-03-31T02:15:29;5.37;;;1.50;;
6394;SDS011;3230;42.588;23.358;2023-03-31T02:17:59;2.13;;;1.20;;
6394;SDS011;3230;42.588;23.358;2023-03-31T02:20:30;4.47;;;1.17;;
6394;SDS011;3230;42.588;23.358;2023-03-31T02:22:57;3.57;;;1.70;;
6394;SDS011;3230;42.588;23.358;2023-03-31T02:25:27;6.00;;;1.60;;
6394;SDS011;3230;42.588;23.358;2023-03-31T02:28:07;4.40;;;1.60;;
6394;SDS011;3230;42.588;23.358;2023-03-31T02:30:40;1.53;;;1.40;;
6394;SDS011;3230;42.588;23.358;2023-03-31T02:33:09;2.60;;;1.60;;
6394;SDS011;3230;42.588;23.358;2023-03-31T02:35:35;1.90;;;1.70;;
6394;SDS011;3230;42.588;23.358;2023-03-31T02:38:00;7.57;;;2.73;;
6394;SDS011;3230;42.588;23.358;2023-03-31T02:40:26;3.97;;;2.67;;
6394;SDS011;3230;42.588;23.358;2023-03-31T02:42:52;3.10;;;2.27;;
6394;SDS011;3230;42.588;23.358;2023-03-31T03:09:53;3.03;;;2.10;;
6394;SDS011;3230;42.588;23.358;2023-03-31T03:12:45;2.10;;;1.83;;
6394;SDS011;3230;42.588;23.358;2023-03-31T03:15:16;2.03;;;1.90;;
6394;SDS011;3230;42.588;23.358;2023-03-31T03:17:48;5.83;;;2.00;;
6394;SDS011;3230;42.588;23.358;2023-03-31T03:20:15;2.97;;;2.00;;
6394;SDS011;3230;42.588;23.358;2023-03-31T03:22:44;3.20;;;2.10;;
6394;SDS011;3230;42.588;23.358;2023-03-31T03:25:10;3.53;;;2.13;;
6394;SDS011;3230;42.588;23.358;2023-03-31T03:27:37;3.13;;;2.10;;
6394;SDS011;3230;42.588;23.358;2023-03-31T03:30:05;2.70;;;2.13;;
6394;SDS011;3230;42.588;23.358;2023-03-31T03:32:32;3.10;;;2.60;;
6394;SDS011;3230;42.588;23.358;2023-03-31T03:34:58;3.40;;;2.00;;
6394;SDS011;3230;42.588;23.358;2023-03-31T03:37:28;3.83;;;2.70;;
6394;SDS011;3230;42.588;23.358;2023-03-31T03:39:54;7.03;;;5.20;;
6394;SDS011;3230;42.588;23.358;2023-03-31T03:42:19;13.07;;;4.53;;
6394;SDS011;3230;42.588;23.358;2023-03-31T03:44:45;5.70;;;3.40;;
6394;SDS011;3230;42.588;23.358;2023-03-31T03:47:10;4.10;;;2.73;;
6394;SDS011;3230;42.588;23.358;2023-03-31T03:49:36;7.57;;;3.30;;
6394;SDS011;3230;42.588;23.358;2023-03-31T03:52:01;4.93;;;2.40;;
6394;SDS011;3230;42.588;23.358;2023-03-31T03:54:27;6.33;;;3.47;;
6394;SDS011;3230;42.588;23.358;2023-03-31T03:56:52;5.03;;;3.30;;
6394;SDS011;3230;42.588;23.358;2023-03-31T03:59:18;3.40;;;3.03;;
6394;SDS011;3230;42.588;23.358;2023-03-31T04:01:43;4.47;;;3.10;;
6394;SDS011;3230;42.588;23.358;2023-03-31T04:04:08;4.50;;;3.20;;
6394;SDS011;3230;42.588;23.358;2023-03-31T04:06:34;4.37;;;3.10;;
6394;SDS011;3230;42.588;23.358;2023-03-31T04:09:00;5.90;;;3.40;;
6394;SDS011;3230;42.588;23.358;2023-03-31T04:11:25;5.97;;;3.70;;
6394;SDS011;3230;42.588;23.358;2023-03-31T04:13:52;6.00;;;3.97;;
6394;SDS011;3230;42.588;23.358;2023-03-31T04:16:18;5.30;;;4.10;;
6394;SDS011;3230;42.588;23.358;2023-03-31T04:18:43;9.27;;;6.20;;
6394;SDS011;3230;42.588;23.358;2023-03-31T04:21:09;10.33;;;6.70;;
6394;SDS011;3230;42.588;23.358;2023-03-31T04:23:39;9.27;;;5.83;;
6394;SDS011;3230;42.588;23.358;2023-03-31T04:26:15;5.77;;;4.00;;
6394;SDS011;3230;42.588;23.358;2023-03-31T04:28:42;8.77;;;4.60;;
6394;SDS011;3230;42.588;23.358;2023-03-31T04:31:10;5.80;;;3.53;;
6394;SDS011;3230;42.588;23.358;2023-03-31T04:33:41;5.97;;;3.63;;
6394;SDS011;3230;42.588;23.358;2023-03-31T04:36:10;4.40;;;2.57;;
6394;SDS011;3230;42.588;23.358;2023-03-31T04:38:41;2.27;;;2.07;;
6394;SDS011;3230;42.588;23.358;2023-03-31T04:41:10;3.00;;;2.30;;
6394;SDS011;3230;42.588;23.358;2023-03-31T04:43:39;3.40;;;2.20;;
6394;SDS011;3230;42.588;23.358;2023-03-31T04:46:05;9.17;;;5.37;;
6394;SDS011;3230;42.588;23.358;2023-03-31T04:48:30;8.63;;;5.90;;
6394;SDS011;3230;42.588;23.358;2023-03-31T04:53:31;12.67;;;6.80;;
6394;SDS011;3230;42.588;23.358;2023-03-31T04:55:57;12.80;;;7.60;;
6394;SDS011;3230;42.588;23.358;2023-03-31T04:58:23;10.73;;;6.47;;
6394;SDS011;3230;42.588;23.358;2023-03-31T05:00:48;7.57;;;5.00;;
6394;SDS011;3230;42.588;23.358;2023-03-31T05:03:13;9.10;;;4.93;;
6394;SDS011;3230;42.588;23.358;2023-03-31T05:05:39;9.73;;;4.67;;
6394;SDS011;3230;42.588;23.358;2023-03-31T05:08:04;9.67;;;5.50;;
6394;SDS011;3230;42.588;23.358;2023-03-31T05:10:30;9.10;;;6.47;;
6394;SDS011;3230;42.588;23.358;2023-03-31T05:12:55;21.60;;;10.70;;
6394;SDS011;3230;42.588;23.358;2023-03-31T05:15:21;20.00;;;10.80;;
6394;SDS011;3230;42.588;23.358;2023-03-31T05:17:48;9.83;;;5.80;;
6394;SDS011;3230;42.588;23.358;2023-03-31T05:20:14;4.17;;;3.00;;
6394;SDS011;3230;42.588;23.358;2023-03-31T05:22:40;3.43;;;3.00;;
6394;SDS011;3230;42.588;23.358;2023-03-31T05:25:06;6.70;;;3.90;;
6394;SDS011;3230;42.588;23.358;2023-03-31T05:27:34;3.33;;;2.20;;
6394;SDS011;3230;42.588;23.358;2023-03-31T05:30:00;6.27;;;3.70;;
6394;SDS011;3230;42.588;23.358;2023-03-31T05:32:26;6.30;;;4.50;;
6394;SDS011;3230;42.588;23.358;2023-03-31T05:34:52;8.60;;;3.47;;
6394;SDS011;3230;42.588;23.358;2023-03-31T05:37:21;2.70;;;2.17;;
6394;SDS011;3230;42.588;23.358;2023-03-31T05:39:50;3.87;;;2.10;;
6394;SDS011;3230;42.588;23.358;2023-03-31T05:42:15;4.27;;;1.80;;
6394;SDS011;3230;42.588;23.358;2023-03-31T05:44:41;4.20;;;2.97;;
6394;SDS011;3230;42.588;23.358;2023-03-31T05:47:07;5.73;;;2.50;;
6394;SDS011;3230;42.588;23.358;2023-03-31T05:49:32;5.77;;;3.57;;
6394;SDS011;3230;42.588;23.358;2023-03-31T05:51:57;3.93;;;1.80;;
6394;SDS011;3230;42.588;23.358;2023-03-31T05:54:23;7.37;;;2.13;;
6394;SDS011;3230;42.588;23.358;2023-03-31T05:56:48;4.93;;;1.87;;
6394;SDS011;3230;42.588;23.358;2023-03-31T05:59:14;11.30;;;3.50;;
6394;SDS011;3230;42.588;23.358;2023-03-31T06:01:40;4.23;;;2.50;;
6394;SDS011;3230;42.588;23.358;2023-03-31T06:04:05;12.83;;;3.00;;
6394;SDS011;3230;42.588;23.358;2023-03-31T06:06:31;7.73;;;2.70;;
6394;SDS011;3230;42.588;23.358;2023-03-31T06:08:59;4.53;;;3.10;;
6394;SDS011;3230;42.588;23.358;2023-03-31T06:11:25;4.60;;;2.80;;
6394;SDS011;3230;42.588;23.358;2023-03-31T06:13:50;4.90;;;2.47;;
6394;SDS011;3230;42.588;23.358;2023-03-31T06:16:16;4.87;;;2.93;;
6394;SDS011;3230;42.588;23.358;2023-03-31T06:18:43;5.60;;;2.60;;
6394;SDS011;3230;42.588;23.358;2023-03-31T06:21:14;4.63;;;3.40;;
6394;SDS011;3230;42.588;23.358;2023-03-31T06:23:41;17.00;;;5.03;;
6394;SDS011;3230;42.588;23.358;2023-03-31T06:26:10;14.77;;;6.93;;
6394;SDS011;3230;42.588;23.358;2023-03-31T06:28:37;11.43;;;3.93;;
6394;SDS011;3230;42.588;23.358;2023-03-31T06:31:03;6.00;;;3.60;;
6394;SDS011;3230;42.588;23.358;2023-03-31T06:33:30;8.60;;;3.50;;
6394;SDS011;3230;42.588;23.358;2023-03-31T06:35:57;5.63;;;3.73;;
6394;SDS011;3230;42.588;23.358;2023-03-31T06:38:23;7.00;;;4.13;;
6394;SDS011;3230;42.588;23.358;2023-03-31T06:40:49;7.53;;;2.97;;
6394;SDS011;3230;42.588;23.358;2023-03-31T06:43:14;8.73;;;3.60;;
6394;SDS011;3230;42.588;23.358;2023-03-31T06:45:40;6.30;;;3.07;;
6394;SDS011;3230;42.588;23.358;2023-03-31T06:48:05;5.13;;;3.10;;
6394;SDS011;3230;42.588;23.358;2023-03-31T06:50:31;10.37;;;3.57;;
6394;SDS011;3230;42.588;23.358;2023-03-31T06:52:56;7.90;;;4.20;;
6394;SDS011;3230;42.588;23.358;2023-03-31T06:55:22;11.10;;;4.77;;
6394;SDS011;3230;42.588;23.358;2023-03-31T06:57:48;8.43;;;3.53;;
6394;SDS011;3230;42.588;23.358;2023-03-31T07:00:13;12.20;;;4.40;;
6394;SDS011;3230;42.588;23.358;2023-03-31T07:02:39;4.33;;;3.23;;
6394;SDS011;3230;42.588;23.358;2023-03-31T07:05:05;10.40;;;4.10;;
6394;SDS011;3230;42.588;23.358;2023-03-31T07:07:31;10.00;;;3.97;;
6394;SDS011;3230;42.588;23.358;2023-03-31T07:09:57;21.13;;;9.10;;
6394;SDS011;3230;42.588;23.358;2023-03-31T07:12:22;14.63;;;6.80;;
6394;SDS011;3230;42.588;23.358;2023-03-31T07:14:48;9.53;;;5.60;;
6394;SDS011;3230;42.588;23.358;2023-03-31T07:17:14;10.07;;;5.10;;
6394;SDS011;3230;42.588;23.358;2023-03-31T07:19:40;12.47;;;4.00;;
6394;SDS011;3230;42.588;23.358;2023-03-31T07:22:05;12.10;;;4.40;;
6394;SDS011;3230;42.588;23.358;2023-03-31T07:24:31;8.77;;;4.13;;
6394;SDS011;3230;42.588;23.358;2023-03-31T07:26:56;10.10;;;5.40;;
6394;SDS011;3230;42.588;23.358;2023-03-31T07:29:22;4.90;;;2.70;;
6394;SDS011;3230;42.588;23.358;2023-03-31T07:31:47;6.30;;;2.80;;
6394;SDS011;3230;42.588;23.358;2023-03-31T07:34:13;7.83;;;2.20;;
6394;SDS011;3230;42.588;23.358;2023-03-31T07:36:38;4.73;;;2.30;;
6394;SDS011;3230;42.588;23.358;2023-03-31T07:39:05;5.97;;;2.37;;
6394;SDS011;3230;42.588;23.358;2023-03-31T07:41:31;7.33;;;3.10;;
6394;SDS011;3230;42.588;23.358;2023-03-31T07:43:57;5.43;;;3.60;;
6394;SDS011;3230;42.588;23.358;2023-03-31T07:46:24;7.60;;;3.00;;
6394;SDS011;3230;42.588;23.358;2023-03-31T07:48:51;6.10;;;3.33;;
6394;SDS011;3230;42.588;23.358;2023-03-31T07:51:19;7.63;;;3.10;;
6394;SDS011;3230;42.588;23.358;2023-03-31T07:53:47;6.13;;;3.73;;
6394;SDS011;3230;42.588;23.358;2023-03-31T07:56:17;9.00;;;4.53;;
6394;SDS011;3230;42.588;23.358;2023-03-31T07:58:44;7.13;;;3.83;;
6394;SDS011;3230;42.588;23.358;2023-03-31T08:01:12;10.83;;;3.17;;
6394;SDS011;3230;42.588;23.358;2023-03-31T08:03:43;4.80;;;3.67;;
6394;SDS011;3230;42.588;23.358;2023-03-31T08:06:10;5.20;;;2.90;;
6394;SDS011;3230;42.588;23.358;2023-03-31T08:08:36;6.80;;;3.37;;
6394;SDS011;3230;42.588;23.358;2023-03-31T08:11:02;11.00;;;3.67;;
6394;SDS011;3230;42.588;23.358;2023-03-31T08:13:29;7.97;;;4.27;;
6394;SDS011;3230;42.588;23.358;2023-03-31T08:15:54;7.63;;;3.70;;
6394;SDS011;3230;42.588;23.358;2023-03-31T08:18:20;3.80;;;3.07;;
6394;SDS011;3230;42.588;23.358;2023-03-31T08:20:46;6.93;;;3.80;;
6394;SDS011;3230;42.588;23.358;2023-03-31T08:23:13;6.83;;;3.37;;
6394;SDS011;3230;42.588;23.358;2023-03-31T08:25:40;5.80;;;3.33;;
6394;SDS011;3230;42.588;23.358;2023-03-31T08:28:05;6.60;;;3.53;;
6394;SDS011;3230;42.588;23.358;2023-03-31T08:30:35;10.00;;;3.40;;
6394;SDS011;3230;42.588;23.358;2023-03-31T08:33:01;7.70;;;4.37;;
6394;SDS011;3230;42.588;23.358;2023-03-31T08:35:27;6.43;;;3.40;;
6394;SDS011;3230;42.588;23.358;2023-03-31T08:37:52;10.10;;;5.13;;
6394;SDS011;3230;42.588;23.358;2023-03-31T08:40:19;7.63;;;4.57;;
6394;SDS011;3230;42.588;23.358;2023-03-31T08:42:48;5.00;;;3.53;;
6394;SDS011;3230;42.588;23.358;2023-03-31T08:45:26;7.07;;;3.83;;
6394;SDS011;3230;42.588;23.358;2023-03-31T08:47:58;8.90;;;4.47;;
6394;SDS011;3230;42.588;23.358;2023-03-31T08:50:31;5.70;;;3.53;;
6394;SDS011;3230;42.588;23.358;2023-03-31T08:53:04;6.90;;;4.10;;
6394;SDS011;3230;42.588;23.358;2023-03-31T08:58:15;12.33;;;4.40;;
6394;SDS011;3230;42.588;23.358;2023-03-31T09:01:06;6.23;;;3.00;;
6394;SDS011;3230;42.588;23.358;2023-03-31T09:06:13;7.10;;;3.60;;
6394;SDS011;3230;42.588;23.358;2023-03-31T09:08:44;5.37;;;2.50;;
6394;SDS011;3230;42.588;23.358;2023-03-31T09:19:10;10.70;;;3.20;;
6394;SDS011;3230;42.588;23.358;2023-03-31T09:21:40;9.33;;;3.80;;
6394;SDS011;3230;42.588;23.358;2023-03-31T09:26:39;10.03;;;4.23;;
6394;SDS011;3230;42.588;23.358;2023-03-31T09:29:16;7.87;;;2.83;;
6394;SDS011;3230;42.588;23.358;2023-03-31T09:31:45;6.97;;;2.10;;
6394;SDS011;3230;42.588;23.358;2023-03-31T09:34:15;8.13;;;2.13;;
6394;SDS011;3230;42.588;23.358;2023-03-31T09:36:46;4.13;;;2.10;;
6394;SDS011;3230;42.588;23.358;2023-03-31T09:39:12;14.67;;;2.80;;
6394;SDS011;3230;42.588;23.358;2023-03-31T09:41:39;6.00;;;2.20;;
6394;SDS011;3230;42.588;23.358;2023-03-31T09:44:12;9.77;;;2.20;;
6394;SDS011;3230;42.588;23.358;2023-03-31T09:46:47;6.57;;;2.70;;
6394;SDS011;3230;42.588;23.358;2023-03-31T09:49:15;6.23;;;2.50;;
6394;SDS011;3230;42.588;23.358;2023-03-31T09:51:44;4.90;;;3.33;;
6394;SDS011;3230;42.588;23.358;2023-03-31T09:54:15;4.43;;;2.30;;
6394;SDS011;3230;42.588;23.358;2023-03-31T09:56:47;17.27;;;8.17;;
6394;SDS011;3230;42.588;23.358;2023-03-31T09:59:29;11.80;;;5.40;;
6394;SDS011;3230;42.588;23.358;2023-03-31T10:01:57;8.57;;;3.50;;
6394;SDS011;3230;42.588;23.358;2023-03-31T10:04:27;10.60;;;4.00;;
6394;SDS011;3230;42.588;23.358;2023-03-31T10:06:54;3.97;;;2.67;;
6394;SDS011;3230;42.588;23.358;2023-03-31T10:09:23;4.00;;;2.63;;
6394;SDS011;3230;42.588;23.358;2023-03-31T10:11:58;10.67;;;3.00;;
6394;SDS011;3230;42.588;23.358;2023-03-31T10:14:32;4.30;;;2.47;;
6394;SDS011;3230;42.588;23.358;2023-03-31T10:17:05;4.43;;;2.83;;
6394;SDS011;3230;42.588;23.358;2023-03-31T10:19:34;8.67;;;2.67;;
6394;SDS011;3230;42.588;23.358;2023-03-31T10:24:38;5.70;;;2.37;;
6394;SDS011;3230;42.588;23.358;2023-03-31T10:27:19;7.23;;;2.50;;
6394;SDS011;3230;42.588;23.358;2023-03-31T10:29:50;8.43;;;3.00;;
6394;SDS011;3230;42.588;23.358;2023-03-31T10:32:24;4.30;;;2.70;;
6394;SDS011;3230;42.588;23.358;2023-03-31T10:34:53;3.10;;;2.27;;
6394;SDS011;3230;42.588;23.358;2023-03-31T10:37:21;3.87;;;2.30;;
6394;SDS011;3230;42.588;23.358;2023-03-31T10:39:59;2.90;;;2.30;;
6394;SDS011;3230;42.588;23.358;2023-03-31T10:42:45;5.13;;;2.77;;
6394;SDS011;3230;42.588;23.358;2023-03-31T10:47:56;3.40;;;2.30;;
6394;SDS011;3230;42.588;23.358;2023-03-31T10:50:34;7.03;;;3.00;;
6394;SDS011;3230;42.588;23.358;2023-03-31T10:53:13;7.03;;;2.77;;
6394;SDS011;3230;42.588;23.358;2023-03-31T10:55:58;2.73;;;2.10;;
6394;SDS011;3230;42.588;23.358;2023-03-31T11:09:54;8.77;;;2.83;;
6394;SDS011;3230;42.588;23.358;2023-03-31T11:24:12;3.67;;;2.10;;
6394;SDS011;3230;42.588;23.358;2023-03-31T11:40:29;19.83;;;3.40;;
6394;SDS011;3230;42.588;23.358;2023-03-31T11:48:04;3.00;;;2.00;;
6394;SDS011;3230;42.588;23.358;2023-03-31T11:50:38;11.83;;;2.50;;
6394;SDS011;3230;42.588;23.358;2023-03-31T11:53:13;14.60;;;2.70;;
6394;SDS011;3230;42.588;23.358;2023-03-31T11:55:41;7.03;;;1.90;;
6394;SDS011;3230;42.588;23.358;2023-03-31T11:58:15;7.30;;;2.20;;
6394;SDS011;3230;42.588;23.358;2023-03-31T12:03:22;4.87;;;1.93;;
6394;SDS011;3230;42.588;23.358;2023-03-31T12:06:18;9.33;;;2.60;;
6394;SDS011;3230;42.588;23.358;2023-03-31T12:09:02;4.03;;;2.30;;
6394;SDS011;3230;42.588;23.358;2023-03-31T12:22:17;11.20;;;2.23;;
6394;SDS011;3230;42.588;23.358;2023-03-31T12:24:46;5.03;;;2.27;;
6394;SDS011;3230;42.588;23.358;2023-03-31T12:32:35;9.13;;;2.53;;
6394;SDS011;3230;42.588;23.358;2023-03-31T12:37:53;3.30;;;1.60;;
6394;SDS011;3230;42.588;23.358;2023-03-31T12:59:35;6.57;;;2.20;;
6394;SDS011;3230;42.588;23.358;2023-03-31T13:02:10;5.70;;;2.40;;
6394;SDS011;3230;42.588;23.358;2023-03-31T13:04:45;7.53;;;2.40;;
6394;SDS011;3230;42.588;23.358;2023-03-31T13:09:46;4.93;;;2.10;;
6394;SDS011;3230;42.588;23.358;2023-03-31T13:12:20;4.87;;;2.33;;
6394;SDS011;3230;42.588;23.358;2023-03-31T13:14:49;7.63;;;2.43;;
6394;SDS011;3230;42.588;23.358;2023-03-31T13:19:50;7.47;;;1.97;;
6394;SDS011;3230;42.588;23.358;2023-03-31T13:22:35;7.47;;;2.10;;
6394;SDS011;3230;42.588;23.358;2023-03-31T13:30:58;4.50;;;1.90;;
6394;SDS011;3230;42.588;23.358;2023-03-31T13:46:58;3.00;;;2.00;;
6394;SDS011;3230;42.588;23.358;2023-03-31T13:52:38;5.90;;;2.30;;
6394;SDS011;3230;42.588;23.358;2023-03-31T14:09:03;3.23;;;1.70;;
6394;SDS011;3230;42.588;23.358;2023-03-31T14:11:50;5.20;;;1.97;;
6394;SDS011;3230;42.588;23.358;2023-03-31T14:14:16;3.83;;;2.10;;
6394;SDS011;3230;42.588;23.358;2023-03-31T14:16:52;6.30;;;2.50;;
6394;SDS011;3230;42.588;23.358;2023-03-31T14:33:12;2.57;;;1.77;;
6394;SDS011;3230;42.588;23.358;2023-03-31T14:38:43;3.10;;;2.10;;
6394;SDS011;3230;42.588;23.358;2023-03-31T14:41:14;7.10;;;2.87;;
6394;SDS011;3230;42.588;23.358;2023-03-31T14:43:45;9.40;;;1.93;;
6394;SDS011;3230;42.588;23.358;2023-03-31T14:46:17;9.77;;;2.10;;
6394;SDS011;3230;42.588;23.358;2023-03-31T14:48:44;4.10;;;2.23;;
6394;SDS011;3230;42.588;23.358;2023-03-31T14:51:13;5.60;;;2.40;;
6394;SDS011;3230;42.588;23.358;2023-03-31T14:53:40;13.10;;;2.47;;
6394;SDS011;3230;42.588;23.358;2023-03-31T14:56:14;10.33;;;2.13;;
6394;SDS011;3230;42.588;23.358;2023-03-31T14:58:48;7.83;;;2.60;;
6394;SDS011;3230;42.588;23.358;2023-03-31T15:01:17;8.27;;;2.37;;
6394;SDS011;3230;42.588;23.358;2023-03-31T15:03:48;11.23;;;5.30;;
6394;SDS011;3230;42.588;23.358;2023-03-31T15:06:15;7.03;;;2.10;;
6394;SDS011;3230;42.588;23.358;2023-03-31T15:08:40;4.80;;;2.30;;
6394;SDS011;3230;42.588;23.358;2023-03-31T15:11:07;5.10;;;2.60;;
6394;SDS011;3230;42.588;23.358;2023-03-31T15:13:42;4.80;;;2.10;;
6394;SDS011;3230;42.588;23.358;2023-03-31T15:19:19;3.57;;;2.00;;
6394;SDS011;3230;42.588;23.358;2023-03-31T15:21:52;5.77;;;2.30;;
6394;SDS011;3230;42.588;23.358;2023-03-31T15:24:26;3.53;;;1.87;;
6394;SDS011;3230;42.588;23.358;2023-03-31T15:27:06;5.43;;;2.03;;
6394;SDS011;3230;42.588;23.358;2023-03-31T15:29:42;7.53;;;2.77;;
6394;SDS011;3230;42.588;23.358;2023-03-31T15:32:30;8.63;;;2.67;;
6394;SDS011;3230;42.588;23.358;2023-03-31T15:34:59;5.80;;;2.30;;
6394;SDS011;3230;42.588;23.358;2023-03-31T15:37:30;8.43;;;2.50;;
6394;SDS011;3230;42.588;23.358;2023-03-31T15:40:03;6.80;;;2.77;;
6394;SDS011;3230;42.588;23.358;2023-03-31T15:42:39;8.40;;;3.20;;
6394;SDS011;3230;42.588;23.358;2023-03-31T15:47:46;10.30;;;4.80;;
6394;SDS011;3230;42.588;23.358;2023-03-31T15:50:14;9.93;;;4.10;;
6394;SDS011;3230;42.588;23.358;2023-03-31T15:52:51;5.90;;;3.30;;
6394;SDS011;3230;42.588;23.358;2023-03-31T15:57:47;14.63;;;4.70;;
6394;SDS011;3230;42.588;23.358;2023-03-31T16:03:23;20.33;;;5.50;;
6394;SDS011;3230;42.588;23.358;2023-03-31T16:05:57;15.70;;;5.90;;
6394;SDS011;3230;42.588;23.358;2023-03-31T16:08:34;13.07;;;6.50;;
6394;SDS011;3230;42.588;23.358;2023-03-31T16:11:04;20.30;;;6.10;;
6394;SDS011;3230;42.588;23.358;2023-03-31T16:13:39;17.70;;;5.63;;
6394;SDS011;3230;42.588;23.358;2023-03-31T16:16:10;11.70;;;3.67;;
6394;SDS011;3230;42.588;23.358;2023-03-31T16:18:39;18.70;;;4.13;;
6394;SDS011;3230;42.588;23.358;2023-03-31T16:21:09;30.57;;;12.50;;
6394;SDS011;3230;42.588;23.358;2023-03-31T16:23:37;48.80;;;19.30;;
6394;SDS011;3230;42.588;23.358;2023-03-31T16:26:05;46.23;;;17.10;;
6394;SDS011;3230;42.588;23.358;2023-03-31T16:28:33;35.83;;;13.90;;
6394;SDS011;3230;42.588;23.358;2023-03-31T16:31:00;25.90;;;9.60;;
6394;SDS011;3230;42.588;23.358;2023-03-31T16:33:26;30.07;;;11.57;;
6394;SDS011;3230;42.588;23.358;2023-03-31T16:35:55;20.63;;;10.60;;
6394;SDS011;3230;42.588;23.358;2023-03-31T16:38:23;19.30;;;10.27;;
6394;SDS011;3230;42.588;23.358;2023-03-31T16:40:53;19.70;;;10.80;;
6394;SDS011;3230;42.588;23.358;2023-03-31T16:43:25;20.40;;;8.87;;
6394;SDS011;3230;42.588;23.358;2023-03-31T16:45:52;14.20;;;7.10;;
6394;SDS011;3230;42.588;23.358;2023-03-31T16:48:23;7.13;;;5.40;;
6394;SDS011;3230;42.588;23.358;2023-03-31T16:50:54;7.17;;;4.20;;
6394;SDS011;3230;42.588;23.358;2023-03-31T16:53:22;4.67;;;3.37;;
6394;SDS011;3230;42.588;23.358;2023-03-31T16:55:50;14.57;;;2.97;;
6394;SDS011;3230;42.588;23.358;2023-03-31T16:58:15;12.40;;;5.10;;
6394;SDS011;3230;42.588;23.358;2023-03-31T17:00:41;15.27;;;7.43;;
6394;SDS011;3230;42.588;23.358;2023-03-31T17:03:08;31.10;;;16.23;;
6394;SDS011;3230;42.588;23.358;2023-03-31T17:05:40;28.50;;;14.77;;
6394;SDS011;3230;42.588;23.358;2023-03-31T17:08:08;35.23;;;15.07;;
6394;SDS011;3230;42.588;23.358;2023-03-31T17:10:35;41.03;;;18.90;;
6394;SDS011;3230;42.588;23.358;2023-03-31T17:13:02;33.80;;;16.63;;
6394;SDS011;3230;42.588;23.358;2023-03-31T17:15:27;24.97;;;13.20;;
6394;SDS011;3230;42.588;23.358;2023-03-31T17:17:56;62.00;;;16.00;;
6394;SDS011;3230;42.588;23.358;2023-03-31T17:20:23;39.53;;;18.47;;
6394;SDS011;3230;42.588;23.358;2023-03-31T17:22:49;28.77;;;15.17;;
6394;SDS011;3230;42.588;23.358;2023-03-31T17:25:14;22.87;;;11.90;;
6394;SDS011;3230;42.588;23.358;2023-03-31T17:27:40;34.37;;;17.23;;
6394;SDS011;3230;42.588;23.358;2023-03-31T17:30:06;40.37;;;19.57;;
6394;SDS011;3230;42.588;23.358;2023-03-31T17:32:32;39.47;;;19.93;;
6394;SDS011;3230;42.588;23.358;2023-03-31T17:34:58;35.73;;;17.73;;
6394;SDS011;3230;42.588;23.358;2023-03-31T17:37:24;43.33;;;20.37;;
6394;SDS011;3230;42.588;23.358;2023-03-31T17:39:49;38.93;;;17.63;;
6394;SDS011;3230;42.588;23.358;2023-03-31T17:42:15;34.43;;;16.70;;
6394;SDS011;3230;42.588;23.358;2023-03-31T17:44:41;32.73;;;15.10;;
6394;SDS011;3230;42.588;23.358;2023-03-31T17:47:07;39.57;;;16.47;;
6394;SDS011;3230;42.588;23.358;2023-03-31T17:49:32;33.50;;;15.70;;
6394;SDS011;3230;42.588;23.358;2023-03-31T17:51:58;44.13;;;19.20;;
6394;SDS011;3230;42.588;23.358;2023-03-31T17:54:24;30.07;;;13.70;;
6394;SDS011;3230;42.588;23.358;2023-03-31T17:56:50;25.60;;;11.23;;
6394;SDS011;3230;42.588;23.358;2023-03-31T17:59:16;15.50;;;7.80;;
6394;SDS011;3230;42.588;23.358;2023-03-31T18:01:43;12.67;;;7.27;;
6394;SDS011;3230;42.588;23.358;2023-03-31T18:04:10;11.73;;;6.50;;
6394;SDS011;3230;42.588;23.358;2023-03-31T18:06:37;11.67;;;6.50;;
6394;SDS011;3230;42.588;23.358;2023-03-31T18:09:03;11.50;;;5.10;;
6394;SDS011;3230;42.588;23.358;2023-03-31T18:11:30;9.80;;;3.20;;
6394;SDS011;3230;42.588;23.358;2023-03-31T18:13:55;9.47;;;4.30;;
6394;SDS011;3230;42.588;23.358;2023-03-31T18:16:21;10.13;;;4.40;;
6394;SDS011;3230;42.588;23.358;2023-03-31T18:18:46;21.80;;;11.70;;
6394;SDS011;3230;42.588;23.358;2023-03-31T18:21:13;22.63;;;10.50;;
6394;SDS011;3230;42.588;23.358;2023-03-31T18:23:38;19.53;;;9.63;;
6394;SDS011;3230;42.588;23.358;2023-03-31T18:26:08;13.73;;;7.30;;
6394;SDS011;3230;42.588;23.358;2023-03-31T18:28:36;10.73;;;5.97;;
6394;SDS011;3230;42.588;23.358;2023-03-31T18:31:02;10.10;;;5.00;;
6394;SDS011;3230;42.588;23.358;2023-03-31T18:33:28;16.70;;;6.47;;
6394;SDS011;3230;42.588;23.358;2023-03-31T18:35:54;6.30;;;4.00;;
6394;SDS011;3230;42.588;23.358;2023-03-31T18:38:22;23.40;;;10.10;;
6394;SDS011;3230;42.588;23.358;2023-03-31T18:40:48;12.97;;;6.70;;
6394;SDS011;3230;42.588;23.358;2023-03-31T18:43:15;16.47;;;6.97;;
6394;SDS011;3230;42.588;23.358;2023-03-31T18:45:42;19.20;;;8.00;;
6394;SDS011;3230;42.588;23.358;2023-03-31T18:48:18;15.17;;;7.37;;
6394;SDS011;3230;42.588;23.358;2023-03-31T18:50:48;18.00;;;8.80;;
6394;SDS011;3230;42.588;23.358;2023-03-31T18:53:15;16.63;;;7.73;;
6394;SDS011;3230;42.588;23.358;2023-03-31T18:55:42;20.10;;;4.83;;
6394;SDS011;3230;42.588;23.358;2023-03-31T18:58:07;11.63;;;6.20;;
6394;SDS011;3230;42.588;23.358;2023-03-31T19:00:33;13.83;;;6.07;;
6394;SDS011;3230;42.588;23.358;2023-03-31T19:02:59;9.47;;;5.10;;